Carrolls, Washington
Current Conditions -  °F | °C
As of 1:15 AM on Wednesday 22 Oct 2014 (Local Time) from KKLS Reporting Station
Overcast Overcast  
Wind Chill: 57°   Ceiling: 12000
Heat Index: 57°   Visibility: 10mi
Dew Point: 46°   Wind: 18mph
Humidity: 67%   Direction: 150°SSE
Pressure: 29.79"   Gusts: 35mph
Location:  46.07°N, 122.86°W
Report Text: KKLS 220815Z AUTO 15016G30KT 10SM SCT030 OVC120 14/08 A2979 RMK AO1
Loading
Personal Weather Stations






























Interactive Weather Map
Tropical Storm Tracking
New forecast layout! Learn more

10-Day Weather Forecast

Advertisements
Track Severe Weather on mobile